sensor_id;sensor_type;location;lat;lon;timestamp;P1;durP1;ratioP1;P2;durP2;ratioP2
62852;SDS011;49205;44.868;38.140;2022-11-02T00:01:56;4.60;;;2.90;;
62852;SDS011;49205;44.868;38.140;2022-11-02T00:04:24;3.85;;;2.45;;
62852;SDS011;49205;44.868;38.140;2022-11-02T00:06:53;4.53;;;2.70;;
62852;SDS011;49205;44.868;38.140;2022-11-02T00:09:21;11.05;;;3.30;;
62852;SDS011;49205;44.868;38.140;2022-11-02T00:11:50;5.33;;;2.83;;
62852;SDS011;49205;44.868;38.140;2022-11-02T00:14:19;5.30;;;2.42;;
62852;SDS011;49205;44.868;38.140;2022-11-02T00:16:48;5.00;;;2.77;;
62852;SDS011;49205;44.868;38.140;2022-11-02T00:19:16;4.72;;;2.75;;
62852;SDS011;49205;44.868;38.140;2022-11-02T00:21:45;7.42;;;2.90;;
62852;SDS011;49205;44.868;38.140;2022-11-02T00:24:14;5.53;;;2.75;;
62852;SDS011;49205;44.868;38.140;2022-11-02T00:26:43;3.22;;;2.12;;
62852;SDS011;49205;44.868;38.140;2022-11-02T00:29:12;6.50;;;2.30;;
62852;SDS011;49205;44.868;38.140;2022-11-02T00:31:40;9.75;;;4.97;;
62852;SDS011;49205;44.868;38.140;2022-11-02T00:34:11;9.38;;;4.03;;
62852;SDS011;49205;44.868;38.140;2022-11-02T00:36:39;5.40;;;3.10;;
62852;SDS011;49205;44.868;38.140;2022-11-02T00:39:08;7.87;;;2.60;;
62852;SDS011;49205;44.868;38.140;2022-11-02T00:41:37;6.25;;;2.65;;
62852;SDS011;49205;44.868;38.140;2022-11-02T00:44:06;7.45;;;2.70;;
62852;SDS011;49205;44.868;38.140;2022-11-02T00:46:34;5.03;;;2.85;;
62852;SDS011;49205;44.868;38.140;2022-11-02T00:49:04;3.72;;;2.65;;
62852;SDS011;49205;44.868;38.140;2022-11-02T00:51:33;7.15;;;3.27;;
62852;SDS011;49205;44.868;38.140;2022-11-02T00:54:02;6.85;;;2.85;;
62852;SDS011;49205;44.868;38.140;2022-11-02T00:56:31;5.65;;;3.00;;
62852;SDS011;49205;44.868;38.140;2022-11-02T00:59:02;3.62;;;2.42;;
62852;SDS011;49205;44.868;38.140;2022-11-02T01:01:31;5.00;;;2.52;;
62852;SDS011;49205;44.868;38.140;2022-11-02T01:04:00;4.28;;;2.30;;
62852;SDS011;49205;44.868;38.140;2022-11-02T01:06:29;3.55;;;2.12;;
62852;SDS011;49205;44.868;38.140;2022-11-02T01:08:59;4.58;;;2.47;;
62852;SDS011;49205;44.868;38.140;2022-11-02T01:11:27;4.28;;;2.75;;
62852;SDS011;49205;44.868;38.140;2022-11-02T01:13:56;5.53;;;2.60;;
62852;SDS011;49205;44.868;38.140;2022-11-02T01:16:25;8.10;;;2.62;;
62852;SDS011;49205;44.868;38.140;2022-11-02T01:18:53;7.62;;;3.37;;
62852;SDS011;49205;44.868;38.140;2022-11-02T01:21:22;3.77;;;2.85;;
62852;SDS011;49205;44.868;38.140;2022-11-02T01:23:51;8.58;;;3.27;;
62852;SDS011;49205;44.868;38.140;2022-11-02T01:26:20;5.60;;;3.35;;
62852;SDS011;49205;44.868;38.140;2022-11-02T01:28:51;7.90;;;3.67;;
62852;SDS011;49205;44.868;38.140;2022-11-02T01:31:19;5.92;;;3.47;;
62852;SDS011;49205;44.868;38.140;2022-11-02T01:33:48;7.30;;;3.50;;
62852;SDS011;49205;44.868;38.140;2022-11-02T01:36:17;4.90;;;2.58;;
62852;SDS011;49205;44.868;38.140;2022-11-02T01:38:51;4.63;;;2.80;;
62852;SDS011;49205;44.868;38.140;2022-11-02T01:41:21;4.35;;;2.70;;
62852;SDS011;49205;44.868;38.140;2022-11-02T01:43:52;4.83;;;2.58;;
62852;SDS011;49205;44.868;38.140;2022-11-02T01:46:20;5.72;;;2.80;;
62852;SDS011;49205;44.868;38.140;2022-11-02T01:48:57;5.45;;;2.20;;
62852;SDS011;49205;44.868;38.140;2022-11-02T01:51:26;4.70;;;2.77;;
62852;SDS011;49205;44.868;38.140;2022-11-02T01:53:56;4.45;;;2.67;;
62852;SDS011;49205;44.868;38.140;2022-11-02T01:56:24;4.40;;;2.52;;
62852;SDS011;49205;44.868;38.140;2022-11-02T01:58:55;6.83;;;2.50;;
62852;SDS011;49205;44.868;38.140;2022-11-02T02:01:24;4.37;;;2.60;;
62852;SDS011;49205;44.868;38.140;2022-11-02T02:03:53;2.47;;;2.00;;
62852;SDS011;49205;44.868;38.140;2022-11-02T02:06:23;5.95;;;3.05;;
62852;SDS011;49205;44.868;38.140;2022-11-02T02:08:53;3.30;;;2.10;;
62852;SDS011;49205;44.868;38.140;2022-11-02T02:11:27;4.42;;;2.60;;
62852;SDS011;49205;44.868;38.140;2022-11-02T02:13:57;8.93;;;2.50;;
62852;SDS011;49205;44.868;38.140;2022-11-02T02:16:34;3.87;;;2.50;;
62852;SDS011;49205;44.868;38.140;2022-11-02T02:18:56;5.80;;;2.25;;
62852;SDS011;49205;44.868;38.140;2022-11-02T02:21:48;4.65;;;2.70;;
62852;SDS011;49205;44.868;38.140;2022-11-02T02:27:04;5.87;;;2.62;;
62852;SDS011;49205;44.868;38.140;2022-11-02T02:29:36;4.65;;;2.30;;
62852;SDS011;49205;44.868;38.140;2022-11-02T02:32:05;5.58;;;2.58;;
62852;SDS011;49205;44.868;38.140;2022-11-02T02:34:46;3.70;;;2.70;;
62852;SDS011;49205;44.868;38.140;2022-11-02T02:37:09;6.72;;;3.15;;
62852;SDS011;49205;44.868;38.140;2022-11-02T02:39:40;4.08;;;3.22;;
62852;SDS011;49205;44.868;38.140;2022-11-02T02:42:11;6.12;;;2.70;;
62852;SDS011;49205;44.868;38.140;2022-11-02T02:44:41;5.22;;;2.98;;
62852;SDS011;49205;44.868;38.140;2022-11-02T02:47:10;3.08;;;2.33;;
62852;SDS011;49205;44.868;38.140;2022-11-02T02:49:46;5.17;;;2.65;;
62852;SDS011;49205;44.868;38.140;2022-11-02T02:52:09;4.15;;;2.60;;
62852;SDS011;49205;44.868;38.140;2022-11-02T02:54:41;5.15;;;3.27;;
62852;SDS011;49205;44.868;38.140;2022-11-02T02:57:12;5.65;;;3.30;;
62852;SDS011;49205;44.868;38.140;2022-11-02T02:59:42;8.30;;;2.83;;
62852;SDS011;49205;44.868;38.140;2022-11-02T03:02:19;5.35;;;2.65;;
62852;SDS011;49205;44.868;38.140;2022-11-02T03:04:45;6.17;;;3.80;;
62852;SDS011;49205;44.868;38.140;2022-11-02T03:07:16;6.30;;;2.80;;
62852;SDS011;49205;44.868;38.140;2022-11-02T03:14:59;13.50;;;6.00;;
62852;SDS011;49205;44.868;38.140;2022-11-02T03:17:30;8.40;;;3.80;;
62852;SDS011;49205;44.868;38.140;2022-11-02T03:20:07;8.10;;;3.35;;
62852;SDS011;49205;44.868;38.140;2022-11-02T03:22:29;6.55;;;4.72;;
62852;SDS011;49205;44.868;38.140;2022-11-02T03:27:33;7.45;;;2.92;;
62852;SDS011;49205;44.868;38.140;2022-11-02T03:30:04;5.87;;;2.67;;
62852;SDS011;49205;44.868;38.140;2022-11-02T03:35:18;25.00;;;6.40;;
62852;SDS011;49205;44.868;38.140;2022-11-02T03:37:54;16.75;;;4.55;;
62852;SDS011;49205;44.868;38.140;2022-11-02T03:40:28;7.08;;;2.98;;
62852;SDS011;49205;44.868;38.140;2022-11-02T03:42:53;22.42;;;4.40;;
62852;SDS011;49205;44.868;38.140;2022-11-02T03:45:23;7.30;;;3.55;;
62852;SDS011;49205;44.868;38.140;2022-11-02T03:47:54;12.13;;;3.30;;
62852;SDS011;49205;44.868;38.140;2022-11-02T03:50:23;5.45;;;3.40;;
62852;SDS011;49205;44.868;38.140;2022-11-02T03:52:58;8.58;;;3.90;;
62852;SDS011;49205;44.868;38.140;2022-11-02T03:55:28;8.45;;;4.35;;
62852;SDS011;49205;44.868;38.140;2022-11-02T03:57:57;9.90;;;4.40;;
62852;SDS011;49205;44.868;38.140;2022-11-02T04:00:28;10.72;;;5.25;;
62852;SDS011;49205;44.868;38.140;2022-11-02T04:02:59;9.53;;;4.53;;
62852;SDS011;49205;44.868;38.140;2022-11-02T04:05:37;7.97;;;4.37;;
62852;SDS011;49205;44.868;38.140;2022-11-02T04:08:13;14.85;;;5.37;;
62852;SDS011;49205;44.868;38.140;2022-11-02T04:10:50;12.30;;;3.80;;
62852;SDS011;49205;44.868;38.140;2022-11-02T04:13:37;7.42;;;4.50;;
62852;SDS011;49205;44.868;38.140;2022-11-02T04:16:25;8.35;;;4.10;;
62852;SDS011;49205;44.868;38.140;2022-11-02T04:18:54;12.85;;;4.12;;
62852;SDS011;49205;44.868;38.140;2022-11-02T04:21:42;10.38;;;5.25;;
62852;SDS011;49205;44.868;38.140;2022-11-02T04:24:12;10.03;;;4.40;;
62852;SDS011;49205;44.868;38.140;2022-11-02T04:26:59;12.05;;;5.80;;
62852;SDS011;49205;44.868;38.140;2022-11-02T04:29:28;8.95;;;3.90;;
62852;SDS011;49205;44.868;38.140;2022-11-02T04:31:57;9.88;;;5.12;;
62852;SDS011;49205;44.868;38.140;2022-11-02T04:34:27;9.93;;;4.33;;
62852;SDS011;49205;44.868;38.140;2022-11-02T04:36:56;12.90;;;8.20;;
62852;SDS011;49205;44.868;38.140;2022-11-02T04:39:25;4.85;;;4.33;;
62852;SDS011;49205;44.868;38.140;2022-11-02T04:41:54;10.60;;;3.75;;
62852;SDS011;49205;44.868;38.140;2022-11-02T04:44:24;6.05;;;3.05;;
62852;SDS011;49205;44.868;38.140;2022-11-02T04:46:54;6.03;;;3.47;;
62852;SDS011;49205;44.868;38.140;2022-11-02T04:49:25;9.00;;;4.08;;
62852;SDS011;49205;44.868;38.140;2022-11-02T04:51:54;8.03;;;3.30;;
62852;SDS011;49205;44.868;38.140;2022-11-02T04:54:24;15.08;;;5.30;;
62852;SDS011;49205;44.868;38.140;2022-11-02T04:56:54;9.83;;;5.35;;
62852;SDS011;49205;44.868;38.140;2022-11-02T04:59:24;12.65;;;4.53;;
62852;SDS011;49205;44.868;38.140;2022-11-02T05:01:53;11.63;;;4.87;;
62852;SDS011;49205;44.868;38.140;2022-11-02T05:04:21;9.05;;;5.47;;
62852;SDS011;49205;44.868;38.140;2022-11-02T05:06:50;11.90;;;5.95;;
62852;SDS011;49205;44.868;38.140;2022-11-02T05:09:19;17.15;;;5.55;;
62852;SDS011;49205;44.868;38.140;2022-11-02T05:11:48;23.67;;;6.78;;
62852;SDS011;49205;44.868;38.140;2022-11-02T05:14:17;14.35;;;4.92;;
62852;SDS011;49205;44.868;38.140;2022-11-02T05:16:46;14.75;;;5.42;;
62852;SDS011;49205;44.868;38.140;2022-11-02T05:19:14;11.53;;;5.12;;
62852;SDS011;49205;44.868;38.140;2022-11-02T05:21:43;14.18;;;4.60;;
62852;SDS011;49205;44.868;38.140;2022-11-02T05:24:13;11.25;;;5.65;;
62852;SDS011;49205;44.868;38.140;2022-11-02T05:26:41;8.90;;;4.83;;
62852;SDS011;49205;44.868;38.140;2022-11-02T05:29:10;16.48;;;5.83;;
62852;SDS011;49205;44.868;38.140;2022-11-02T05:31:39;20.05;;;7.78;;
62852;SDS011;49205;44.868;38.140;2022-11-02T05:34:08;20.10;;;9.20;;
62852;SDS011;49205;44.868;38.140;2022-11-02T05:36:37;23.60;;;13.25;;
62852;SDS011;49205;44.868;38.140;2022-11-02T05:39:06;11.70;;;5.90;;
62852;SDS011;49205;44.868;38.140;2022-11-02T05:41:35;16.97;;;7.20;;
62852;SDS011;49205;44.868;38.140;2022-11-02T05:44:04;18.55;;;7.95;;
62852;SDS011;49205;44.868;38.140;2022-11-02T05:46:34;18.12;;;7.28;;
62852;SDS011;49205;44.868;38.140;2022-11-02T05:49:03;18.75;;;6.75;;
62852;SDS011;49205;44.868;38.140;2022-11-02T05:51:32;21.12;;;6.78;;
62852;SDS011;49205;44.868;38.140;2022-11-02T05:54:00;18.07;;;6.83;;
62852;SDS011;49205;44.868;38.140;2022-11-02T05:56:29;12.90;;;4.85;;
62852;SDS011;49205;44.868;38.140;2022-11-02T05:58:58;19.23;;;6.00;;
62852;SDS011;49205;44.868;38.140;2022-11-02T06:01:27;9.25;;;4.20;;
62852;SDS011;49205;44.868;38.140;2022-11-02T06:03:55;14.13;;;4.55;;
62852;SDS011;49205;44.868;38.140;2022-11-02T06:06:24;10.70;;;4.62;;
62852;SDS011;49205;44.868;38.140;2022-11-02T06:08:53;16.23;;;6.15;;
62852;SDS011;49205;44.868;38.140;2022-11-02T06:11:21;9.80;;;4.00;;
62852;SDS011;49205;44.868;38.140;2022-11-02T06:13:50;13.85;;;4.97;;
62852;SDS011;49205;44.868;38.140;2022-11-02T06:16:19;16.40;;;4.53;;
62852;SDS011;49205;44.868;38.140;2022-11-02T06:18:47;6.80;;;3.72;;
62852;SDS011;49205;44.868;38.140;2022-11-02T06:21:16;6.97;;;3.67;;
62852;SDS011;49205;44.868;38.140;2022-11-02T06:23:46;5.72;;;3.58;;
62852;SDS011;49205;44.868;38.140;2022-11-02T06:26:15;8.28;;;3.85;;
62852;SDS011;49205;44.868;38.140;2022-11-02T06:28:44;6.95;;;3.15;;
62852;SDS011;49205;44.868;38.140;2022-11-02T06:31:13;12.10;;;3.83;;
62852;SDS011;49205;44.868;38.140;2022-11-02T06:33:43;6.10;;;3.70;;
62852;SDS011;49205;44.868;38.140;2022-11-02T06:36:12;8.98;;;3.80;;
62852;SDS011;49205;44.868;38.140;2022-11-02T06:38:41;5.90;;;2.90;;
62852;SDS011;49205;44.868;38.140;2022-11-02T06:41:10;11.88;;;3.47;;
62852;SDS011;49205;44.868;38.140;2022-11-02T06:43:39;7.90;;;4.05;;
62852;SDS011;49205;44.868;38.140;2022-11-02T06:46:08;8.28;;;4.00;;
62852;SDS011;49205;44.868;38.140;2022-11-02T06:48:36;15.80;;;4.45;;
62852;SDS011;49205;44.868;38.140;2022-11-02T06:51:05;16.10;;;6.58;;
62852;SDS011;49205;44.868;38.140;2022-11-02T06:53:34;13.53;;;5.70;;
62852;SDS011;49205;44.868;38.140;2022-11-02T06:56:03;13.43;;;5.42;;
62852;SDS011;49205;44.868;38.140;2022-11-02T06:58:31;8.50;;;4.92;;
62852;SDS011;49205;44.868;38.140;2022-11-02T07:01:01;18.95;;;5.33;;
62852;SDS011;49205;44.868;38.140;2022-11-02T07:03:29;7.67;;;4.62;;
62852;SDS011;49205;44.868;38.140;2022-11-02T07:05:58;10.70;;;5.25;;
62852;SDS011;49205;44.868;38.140;2022-11-02T07:08:27;17.55;;;6.72;;
62852;SDS011;49205;44.868;38.140;2022-11-02T07:10:56;14.33;;;8.38;;
62852;SDS011;49205;44.868;38.140;2022-11-02T07:13:25;19.00;;;8.53;;
62852;SDS011;49205;44.868;38.140;2022-11-02T07:15:54;19.00;;;7.92;;
62852;SDS011;49205;44.868;38.140;2022-11-02T07:18:22;23.15;;;8.93;;
62852;SDS011;49205;44.868;38.140;2022-11-02T07:20:51;15.68;;;5.67;;
62852;SDS011;49205;44.868;38.140;2022-11-02T07:23:20;5.50;;;3.47;;
62852;SDS011;49205;44.868;38.140;2022-11-02T07:25:50;4.28;;;1.60;;
62852;SDS011;49205;44.868;38.140;2022-11-02T07:28:19;1.15;;;1.00;;
62852;SDS011;49205;44.868;38.140;2022-11-02T07:30:47;4.65;;;1.20;;
62852;SDS011;49205;44.868;38.140;2022-11-02T07:33:16;2.35;;;1.20;;
62852;SDS011;49205;44.868;38.140;2022-11-02T07:35:45;2.75;;;1.10;;
62852;SDS011;49205;44.868;38.140;2022-11-02T07:38:13;11.50;;;3.17;;
62852;SDS011;49205;44.868;38.140;2022-11-02T07:40:42;2.20;;;1.20;;
62852;SDS011;49205;44.868;38.140;2022-11-02T07:43:10;3.10;;;1.32;;
62852;SDS011;49205;44.868;38.140;2022-11-02T07:45:47;4.35;;;1.27;;
62852;SDS011;49205;44.868;38.140;2022-11-02T07:48:15;3.42;;;1.20;;
62852;SDS011;49205;44.868;38.140;2022-11-02T07:50:44;4.83;;;1.30;;
62852;SDS011;49205;44.868;38.140;2022-11-02T07:53:13;5.53;;;1.80;;
62852;SDS011;49205;44.868;38.140;2022-11-02T07:55:41;7.47;;;1.50;;
62852;SDS011;49205;44.868;38.140;2022-11-02T07:58:10;3.40;;;1.52;;
62852;SDS011;49205;44.868;38.140;2022-11-02T08:00:42;2.83;;;1.22;;
62852;SDS011;49205;44.868;38.140;2022-11-02T08:03:10;6.70;;;1.10;;
62852;SDS011;49205;44.868;38.140;2022-11-02T08:05:41;0.98;;;0.80;;
62852;SDS011;49205;44.868;38.140;2022-11-02T08:08:13;3.45;;;1.22;;
62852;SDS011;49205;44.868;38.140;2022-11-02T08:10:40;2.37;;;0.90;;
62852;SDS011;49205;44.868;38.140;2022-11-02T08:13:10;3.50;;;1.07;;
62852;SDS011;49205;44.868;38.140;2022-11-02T08:15:39;8.33;;;1.77;;
62852;SDS011;49205;44.868;38.140;2022-11-02T08:18:09;11.63;;;6.00;;
62852;SDS011;49205;44.868;38.140;2022-11-02T08:20:37;1.37;;;0.98;;
62852;SDS011;49205;44.868;38.140;2022-11-02T08:23:07;2.25;;;1.22;;
62852;SDS011;49205;44.868;38.140;2022-11-02T08:25:36;4.75;;;1.00;;
62852;SDS011;49205;44.868;38.140;2022-11-02T08:28:05;1.05;;;0.88;;
62852;SDS011;49205;44.868;38.140;2022-11-02T08:30:36;4.53;;;1.07;;
62852;SDS011;49205;44.868;38.140;2022-11-02T08:33:05;3.58;;;1.40;;
62852;SDS011;49205;44.868;38.140;2022-11-02T08:35:35;7.35;;;1.30;;
62852;SDS011;49205;44.868;38.140;2022-11-02T08:38:04;5.67;;;1.45;;
62852;SDS011;49205;44.868;38.140;2022-11-02T08:40:33;2.02;;;1.00;;
62852;SDS011;49205;44.868;38.140;2022-11-02T08:43:07;3.20;;;1.50;;
62852;SDS011;49205;44.868;38.140;2022-11-02T08:45:36;5.33;;;1.72;;
62852;SDS011;49205;44.868;38.140;2022-11-02T08:48:05;7.67;;;1.25;;
62852;SDS011;49205;44.868;38.140;2022-11-02T08:50:34;3.75;;;1.20;;
62852;SDS011;49205;44.868;38.140;2022-11-02T08:53:02;10.98;;;1.60;;
62852;SDS011;49205;44.868;38.140;2022-11-02T08:55:31;0.90;;;0.90;;
62852;SDS011;49205;44.868;38.140;2022-11-02T08:58:00;4.72;;;1.12;;
62852;SDS011;49205;44.868;38.140;2022-11-02T09:00:29;2.10;;;1.02;;
62852;SDS011;49205;44.868;38.140;2022-11-02T09:03:05;4.10;;;1.00;;
62852;SDS011;49205;44.868;38.140;2022-11-02T09:05:35;2.33;;;1.02;;
62852;SDS011;49205;44.868;38.140;2022-11-02T09:08:05;5.20;;;0.90;;
62852;SDS011;49205;44.868;38.140;2022-11-02T09:10:34;1.42;;;0.85;;
62852;SDS011;49205;44.868;38.140;2022-11-02T09:13:04;1.52;;;0.90;;
62852;SDS011;49205;44.868;38.140;2022-11-02T09:15:34;1.25;;;0.90;;
62852;SDS011;49205;44.868;38.140;2022-11-02T09:18:03;1.72;;;1.00;;
62852;SDS011;49205;44.868;38.140;2022-11-02T09:20:32;2.77;;;1.50;;
62852;SDS011;49205;44.868;38.140;2022-11-02T09:23:00;3.60;;;1.00;;
62852;SDS011;49205;44.868;38.140;2022-11-02T09:25:29;2.72;;;1.00;;
62852;SDS011;49205;44.868;38.140;2022-11-02T09:27:57;4.22;;;1.00;;
62852;SDS011;49205;44.868;38.140;2022-11-02T09:30:26;4.97;;;1.00;;
62852;SDS011;49205;44.868;38.140;2022-11-02T09:32:59;2.65;;;0.90;;
